Time;durP1;ratioP1;P1;durP2;ratioP2;P2;SDS_P1;SDS_P2;PMS_P1;PMS_P2;Temp;Humidity;BMP_temperature;BMP_pressure;BME280_temperature;BME280_humidity;BME280_pressure;Samples;Min_cycle;Max_cycle;Signal;HPM_P1;HPM_P2
2024/03/29 01:43:19;;;;;;;4.18;3.97;;;6.70;99.90;;;;;;5018061;28;20781;-71
2024/03/29 01:45:49;;;;;;;3.65;3.45;;;6.70;99.90;;;;;;5017106;28;20355;-72
2024/03/29 01:48:17;;;;;;;3.85;3.65;;;6.70;99.90;;;;;;5017311;28;20277;-71
2024/03/29 01:50:44;;;;;;;4.28;3.97;;;6.70;99.90;;;;;;5015446;28;20310;-70
2024/03/29 01:53:12;;;;;;;4.18;3.97;;;6.70;99.90;;;;;;5015942;28;20970;-73
2024/03/29 01:55:39;;;;;;;3.45;3.25;;;6.70;99.90;;;;;;5015053;28;20313;-71
2024/03/29 01:58:10;;;;;;;3.38;3.17;;;6.70;99.90;;;;;;5015387;28;20324;-72
2024/03/29 02:00:40;;;;;;;3.80;3.60;;;6.70;99.90;;;;;;5016260;28;20303;-71
2024/03/29 02:03:09;;;;;;;3.40;3.20;;;6.70;99.90;;;;;;5018025;28;20254;-70
2024/03/29 02:05:37;;;;;;;3.60;3.40;;;6.80;99.90;;;;;;5014759;28;20311;-71
2024/03/29 02:08:05;;;;;;;3.80;3.50;;;6.80;99.90;;;;;;5016695;28;20221;-71
2024/03/29 02:10:32;;;;;;;4.00;3.80;;;6.80;99.90;;;;;;5015503;28;20338;-70
2024/03/29 02:12:59;;;;;;;3.60;3.40;;;6.70;99.90;;;;;;5012042;28;20319;-71
2024/03/29 02:15:28;;;;;;;3.53;3.33;;;6.70;99.90;;;;;;5014814;28;20228;-72
2024/03/29 02:17:55;;;;;;;3.17;2.97;;;6.70;99.90;;;;;;5015490;28;20216;-70
2024/03/29 02:20:22;;;;;;;3.45;3.25;;;6.70;99.90;;;;;;5012683;28;20286;-71
2024/03/29 02:22:54;;;;;;;2.95;2.85;;;6.80;99.90;;;;;;5017092;28;20239;-72
2024/03/29 02:25:23;;;;;;;3.33;3.13;;;6.80;99.90;;;;;;5016496;28;20234;-72
2024/03/29 02:27:51;;;;;;;3.70;3.50;;;6.70;99.90;;;;;;5014977;28;20320;-71
2024/03/29 02:30:18;;;;;;;4.13;3.83;;;6.70;99.90;;;;;;5014392;28;20229;-72
2024/03/29 02:32:46;;;;;;;3.67;3.47;;;6.70;99.90;;;;;;5014407;28;20247;-71
2024/03/29 02:35:13;;;;;;;4.38;4.07;;;6.70;99.90;;;;;;5016709;28;20263;-71
2024/03/29 02:37:40;;;;;;;4.03;3.83;;;6.70;99.90;;;;;;5015454;28;20826;-73
2024/03/29 02:40:08;;;;;;;5.20;4.80;;;6.70;99.90;;;;;;5018427;28;20219;-71
2024/03/29 02:42:36;;;;;;;5.20;4.80;;;6.70;99.90;;;;;;5016036;28;20757;-72
2024/03/29 02:45:04;;;;;;;5.00;4.70;;;6.70;99.90;;;;;;5018168;28;20242;-71
2024/03/29 02:47:30;;;;;;;5.15;4.80;;;6.60;99.90;;;;;;5015518;28;20223;-69
2024/03/29 02:49:57;;;;;;;5.25;4.95;;;6.60;99.90;;;;;;5017537;28;20729;-70
2024/03/29 02:52:23;;;;;;;5.20;4.80;;;6.70;99.90;;;;;;5014719;28;20312;-70
2024/03/29 02:54:50;;;;;;;6.15;5.75;;;6.60;99.90;;;;;;5017051;28;20308;-70
2024/03/29 02:57:16;;;;;;;5.50;5.10;;;6.60;99.90;;;;;;5012363;28;20829;-70
2024/03/29 02:59:44;;;;;;;5.40;5.03;;;6.60;99.90;;;;;;5015917;28;20305;-70
2024/03/29 03:02:10;;;;;;;5.30;4.90;;;6.60;99.90;;;;;;5010631;28;20314;-70
2024/03/29 03:04:37;;;;;;;4.38;4.13;;;6.70;99.90;;;;;;5014592;28;20647;-72
2024/03/29 03:12:30;;;;;;;4.13;3.92;;;6.80;99.90;;;;;;5015646;28;20234;-71
2024/03/29 03:14:58;;;;;;;4.15;3.85;;;6.80;99.90;;;;;;5019290;28;20243;-71
2024/03/29 03:17:27;;;;;;;4.40;4.10;;;6.80;99.90;;;;;;5019978;28;20570;-71
2024/03/29 03:19:53;;;;;;;4.35;4.05;;;6.80;99.90;;;;;;5021788;28;20247;-72
2024/03/29 03:22:20;;;;;;;5.15;4.75;;;6.80;99.90;;;;;;5014637;28;20224;-70
2024/03/29 03:24:46;;;;;;;4.80;4.50;;;6.80;99.90;;;;;;5018064;28;20216;-71
2024/03/29 03:27:13;;;;;;;4.50;4.10;;;6.80;99.90;;;;;;5017506;28;20221;-70
2024/03/29 03:29:39;;;;;;;4.88;4.57;;;6.80;99.90;;;;;;5021030;28;20235;-72
2024/03/29 03:32:08;;;;;;;4.75;4.45;;;6.90;99.90;;;;;;5016487;28;20222;-71
2024/03/29 03:34:34;;;;;;;4.53;4.22;;;6.90;99.90;;;;;;5020848;28;20331;-70
2024/03/29 03:37:01;;;;;;;10.43;5.15;;;6.90;99.90;;;;;;5017715;28;20754;-71
2024/03/29 03:39:27;;;;;;;24.85;6.53;;;6.90;99.90;;;;;;5018338;28;20247;-71
2024/03/29 03:41:54;;;;;;;8.38;7.78;;;6.80;99.90;;;;;;5020846;28;20319;-71
2024/03/29 03:44:21;;;;;;;7.88;7.28;;;6.60;99.90;;;;;;5019890;28;20829;-71
2024/03/29 03:46:48;;;;;;;8.05;7.45;;;6.50;99.90;;;;;;5018082;28;20230;-70
2024/03/29 03:49:15;;;;;;;7.43;6.93;;;6.40;99.90;;;;;;5018471;28;20247;-70
2024/03/29 03:51:42;;;;;;;7.05;6.55;;;6.40;99.90;;;;;;5019405;28;20228;-70
2024/03/29 03:54:08;;;;;;;6.82;6.32;;;6.40;99.90;;;;;;5020802;28;20211;-70
2024/03/29 03:56:35;;;;;;;6.50;6.00;;;6.50;99.90;;;;;;5018756;28;20227;-69
2024/03/29 03:59:01;;;;;;;6.57;6.07;;;6.50;99.90;;;;;;5019885;28;20352;-73
2024/03/29 04:01:28;;;;;;;5.75;5.35;;;6.50;99.90;;;;;;5018836;28;20243;-72
2024/03/29 04:03:54;;;;;;;5.82;5.43;;;6.50;99.90;;;;;;5020100;28;20247;-69
2024/03/29 04:06:22;;;;;;;5.63;5.13;;;6.50;99.90;;;;;;5017803;28;20297;-70
2024/03/29 04:08:48;;;;;;;5.80;5.30;;;6.60;99.90;;;;;;5022334;28;20317;-71
2024/03/29 04:11:15;;;;;;;6.80;6.28;;;6.60;99.90;;;;;;5019144;28;20243;-70
2024/03/29 04:13:42;;;;;;;7.32;6.57;;;6.60;99.90;;;;;;5019512;28;20213;-70
2024/03/29 04:16:09;;;;;;;7.97;7.35;;;6.60;99.90;;;;;;5020291;28;20223;-70
2024/03/29 04:18:35;;;;;;;7.57;6.97;;;6.50;99.90;;;;;;5018890;28;20228;-70
2024/03/29 04:21:04;;;;;;;7.10;6.60;;;6.50;99.90;;;;;;5017044;28;20765;-72
2024/03/29 04:23:32;;;;;;;6.40;5.90;;;6.50;99.90;;;;;;5021157;28;20297;-70
2024/03/29 04:26:00;;;;;;;6.55;6.05;;;6.60;99.90;;;;;;5022029;28;20250;-73
2024/03/29 04:28:27;;;;;;;6.85;6.25;;;6.60;99.90;;;;;;5019912;28;20216;-70
2024/03/29 04:30:54;;;;;;;5.22;4.90;;;6.60;99.90;;;;;;5017127;28;20239;-70
2024/03/29 04:33:20;;;;;;;6.53;5.93;;;6.60;99.90;;;;;;5022322;28;20255;-71
2024/03/29 04:35:57;;;;;;;6.70;6.20;;;6.60;99.90;;;;;;5017503;28;20294;-72
2024/03/29 04:38:25;;;;;;;8.07;7.38;;;6.60;99.90;;;;;;5021431;28;20254;-72
2024/03/29 04:40:54;;;;;;;8.25;7.65;;;6.50;99.90;;;;;;5018951;28;20699;-71
2024/03/29 04:43:23;;;;;;;9.13;8.32;;;6.40;99.90;;;;;;5022267;28;20765;-72
2024/03/29 04:45:50;;;;;;;8.80;8.05;;;6.40;99.90;;;;;;5014879;28;20305;-71
2024/03/29 04:48:18;;;;;;;8.77;8.07;;;6.40;99.90;;;;;;5020041;28;20705;-71
2024/03/29 04:50:45;;;;;;;8.20;7.60;;;6.40;99.90;;;;;;5021192;28;20957;-70
2024/03/29 04:53:12;;;;;;;8.75;8.05;;;6.50;99.90;;;;;;5018645;28;20286;-70
2024/03/29 04:55:39;;;;;;;8.52;7.82;;;6.50;99.90;;;;;;5019377;28;20316;-70
2024/03/29 04:58:07;;;;;;;8.70;8.00;;;6.50;99.90;;;;;;5019906;28;20623;-72
2024/03/29 05:00:34;;;;;;;8.18;7.43;;;6.50;99.90;;;;;;5015254;28;20300;-71
2024/03/29 05:03:01;;;;;;;8.23;7.53;;;6.50;99.90;;;;;;5023403;28;20877;-71
2024/03/29 05:05:28;;;;;;;7.40;6.80;;;6.50;99.90;;;;;;5016419;28;20281;-71
2024/03/29 05:07:55;;;;;;;7.15;6.65;;;6.50;99.90;;;;;;5016605;28;20223;-70
2024/03/29 05:10:23;;;;;;;6.03;5.53;;;6.60;99.90;;;;;;5018720;28;20230;-70
2024/03/29 05:12:51;;;;;;;5.60;5.20;;;6.60;99.90;;;;;;5013457;28;20220;-70
2024/03/29 05:15:19;;;;;;;5.65;5.25;;;6.60;99.90;;;;;;5020787;28;20317;-72
2024/03/29 05:17:46;;;;;;;5.68;5.28;;;6.70;99.90;;;;;;4999444;28;20872;-71
2024/03/29 05:20:13;;;;;;;5.72;5.32;;;6.70;99.90;;;;;;5000918;28;20770;-73
2024/03/29 05:22:40;;;;;;;5.40;5.00;;;6.70;99.90;;;;;;4999687;28;20220;-70
2024/03/29 05:25:07;;;;;;;5.75;5.35;;;6.70;99.90;;;;;;5008003;28;20957;-70
2024/03/29 05:27:34;;;;;;;5.85;5.45;;;6.60;99.90;;;;;;5019548;28;20223;-71
2024/03/29 05:30:01;;;;;;;6.30;5.80;;;6.70;99.90;;;;;;5018615;28;20223;-69
2024/03/29 05:32:31;;;;;;;7.13;6.63;;;6.70;99.90;;;;;;5019168;28;20310;-70
2024/03/29 05:34:58;;;;;;;6.38;5.88;;;6.70;99.90;;;;;;5018554;28;20762;-71
2024/03/29 05:37:25;;;;;;;7.93;7.22;;;6.70;99.90;;;;;;5006608;28;20280;-70
2024/03/29 05:39:58;;;;;;;8.50;7.35;;;6.70;99.90;;;;;;5004002;28;20242;-70
2024/03/29 05:42:26;;;;;;;7.75;7.15;;;6.70;99.90;;;;;;5014691;28;20223;-70
2024/03/29 05:44:53;;;;;;;7.80;7.20;;;6.70;99.90;;;;;;5018911;28;20208;-71
2024/03/29 05:47:20;;;;;;;7.38;6.88;;;6.70;99.90;;;;;;5014684;28;20293;-70
2024/03/29 05:49:49;;;;;;;8.00;7.40;;;6.70;99.90;;;;;;5020286;28;20255;-70
2024/03/29 05:52:16;;;;;;;8.70;8.10;;;6.70;99.90;;;;;;5014954;28;20224;-71
2024/03/29 05:54:45;;;;;;;7.57;6.97;;;6.70;99.90;;;;;;5016167;28;20231;-70
2024/03/29 05:57:12;;;;;;;8.75;8.05;;;6.70;99.90;;;;;;5012674;28;20326;-72
2024/03/29 05:59:39;;;;;;;8.38;7.72;;;6.70;99.90;;;;;;5016658;28;21022;-71
2024/03/29 06:02:06;;;;;;;8.98;8.27;;;6.70;99.90;;;;;;5010163;28;20300;-72
2024/03/29 06:04:33;;;;;;;9.32;8.63;;;6.70;99.90;;;;;;5010740;28;20261;-72
2024/03/29 06:07:02;;;;;;;8.80;8.00;;;6.60;99.90;;;;;;5010851;28;20767;-71
2024/03/29 06:09:29;;;;;;;9.48;8.68;;;6.60;99.90;;;;;;5013928;28;20312;-72
2024/03/29 06:11:57;;;;;;;8.75;8.05;;;6.60;99.90;;;;;;5014874;28;20243;-70
2024/03/29 06:17:24;;;;;;;9.13;8.32;;;6.70;99.90;;;;;;5013291;28;20266;-70
2024/03/29 06:19:51;;;;;;;8.82;8.10;;;6.80;99.90;;;;;;5021055;28;20226;-72
2024/03/29 06:22:19;;;;;;;9.02;8.32;;;6.90;99.90;;;;;;5016213;28;20314;-71
2024/03/29 06:24:48;;;;;;;9.25;8.55;;;6.90;99.90;;;;;;5017967;28;20304;-71
2024/03/29 06:27:17;;;;;;;9.07;8.20;;;6.90;99.90;;;;;;5017398;28;20224;-71
2024/03/29 06:29:44;;;;;;;8.50;7.80;;;6.90;99.90;;;;;;5016624;28;20947;-72
2024/03/29 06:32:11;;;;;;;8.95;8.25;;;7.00;99.90;;;;;;5018359;28;20303;-71
2024/03/29 06:34:38;;;;;;;8.82;8.20;;;7.10;99.90;;;;;;5016263;28;20246;-71
2024/03/29 06:37:05;;;;;;;8.23;7.57;;;7.10;99.90;;;;;;5020306;28;20250;-73
2024/03/29 06:39:33;;;;;;;8.23;7.63;;;7.10;99.90;;;;;;5018049;28;20344;-70
2024/03/29 06:42:00;;;;;;;9.55;8.82;;;7.10;99.90;;;;;;5021160;28;20445;-73
2024/03/29 06:44:27;;;;;;;9.88;9.07;;;7.20;99.90;;;;;;5018131;28;20898;-71
2024/03/29 06:46:54;;;;;;;9.25;8.45;;;7.20;99.90;;;;;;5017188;28;20227;-71
2024/03/29 06:49:21;;;;;;;9.52;8.68;;;7.20;99.90;;;;;;5018700;28;20211;-73
2024/03/29 06:51:48;;;;;;;9.57;8.77;;;7.20;99.90;;;;;;5019149;28;21208;-71
2024/03/29 06:54:14;;;;;;;11.00;9.93;;;7.20;99.90;;;;;;5019519;28;20270;-71
2024/03/29 06:56:43;;;;;;;10.63;9.73;;;7.20;99.90;;;;;;5019662;28;20255;-72
2024/03/29 06:59:10;;;;;;;10.52;9.63;;;7.20;99.90;;;;;;5015063;28;20243;-69
2024/03/29 07:01:37;;;;;;;9.93;9.02;;;7.20;99.90;;;;;;5019605;28;20226;-71
2024/03/29 07:04:04;;;;;;;9.10;8.30;;;7.20;99.90;;;;;;5017850;28;20221;-71
2024/03/29 07:06:31;;;;;;;9.52;8.73;;;7.20;99.90;;;;;;5017189;28;20251;-71
2024/03/29 07:08:58;;;;;;;10.10;9.30;;;7.30;99.90;;;;;;5017814;28;20695;-72
2024/03/29 07:11:25;;;;;;;9.45;8.60;;;7.30;99.90;;;;;;5019552;28;20269;-71
2024/03/29 07:13:53;;;;;;;9.70;8.90;;;7.30;99.90;;;;;;5021014;28;20223;-74
2024/03/29 07:16:20;;;;;;;8.80;8.10;;;7.30;99.90;;;;;;5016311;28;20348;-70
2024/03/29 07:18:47;;;;;;;9.90;9.10;;;7.40;99.90;;;;;;5023962;28;20227;-71
2024/03/29 07:21:14;;;;;;;10.75;9.85;;;7.40;99.90;;;;;;5026937;28;20212;-73
2024/03/29 07:23:41;;;;;;;9.20;8.40;;;7.50;99.90;;;;;;5021667;28;20667;-75
2024/03/29 07:26:08;;;;;;;10.43;9.52;;;7.50;99.90;;;;;;5016491;28;20302;-72
2024/03/29 07:28:35;;;;;;;10.15;9.32;;;7.60;99.90;;;;;;5015686;28;20255;-70
2024/03/29 07:31:08;;;;;;;10.98;10.07;;;7.60;99.90;;;;;;5014594;28;20781;-71
2024/03/29 07:33:35;;;;;;;11.10;10.00;;;7.60;99.90;;;;;;5015814;28;20257;-70
2024/03/29 07:36:03;;;;;;;10.32;9.52;;;7.60;99.90;;;;;;5018645;28;20282;-73
2024/03/29 07:38:31;;;;;;;11.23;10.25;;;7.50;99.90;;;;;;5016049;28;20736;-70
2024/03/29 07:40:58;;;;;;;11.90;10.88;;;7.40;99.90;;;;;;5017383;28;20243;-72
2024/03/29 07:43:25;;;;;;;10.73;9.82;;;7.40;99.90;;;;;;5017261;28;20235;-71
2024/03/29 07:45:52;;;;;;;11.48;10.48;;;7.40;99.90;;;;;;5018858;28;20251;-71
2024/03/29 07:48:21;;;;;;;10.77;9.88;;;7.40;99.90;;;;;;5015249;28;20766;-73
2024/03/29 07:50:47;;;;;;;9.98;9.18;;;7.40;99.90;;;;;;5018182;28;20741;-73
2024/03/29 07:53:14;;;;;;;9.55;8.75;;;7.40;99.90;;;;;;5016005;28;20224;-72
2024/03/29 07:55:42;;;;;;;9.63;8.82;;;7.50;99.90;;;;;;5015243;28;20219;-71
2024/03/29 07:58:09;;;;;;;8.68;7.97;;;7.50;99.90;;;;;;5019802;28;20772;-73
2024/03/29 08:00:40;;;;;;;9.07;8.35;;;7.50;99.90;;;;;;5018947;28;20277;-73
2024/03/29 08:03:07;;;;;;;8.35;7.65;;;7.50;99.90;;;;;;5021822;28;20215;-72
2024/03/29 08:05:36;;;;;;;8.88;8.18;;;7.50;99.90;;;;;;5018347;28;20247;-72
2024/03/29 08:08:04;;;;;;;7.30;6.70;;;7.60;99.90;;;;;;5020838;28;20277;-71
2024/03/29 08:10:31;;;;;;;7.40;6.82;;;7.50;99.90;;;;;;5021493;28;20315;-71
2024/03/29 08:13:00;;;;;;;8.32;7.72;;;7.50;99.90;;;;;;5022360;28;20260;-71
2024/03/29 08:15:27;;;;;;;7.65;7.05;;;7.50;99.90;;;;;;5017586;28;20231;-71
2024/03/29 08:17:54;;;;;;;7.32;6.72;;;7.50;99.90;;;;;;5021302;28;20243;-73
2024/03/29 08:20:23;;;;;;;7.53;6.93;;;7.40;99.90;;;;;;5020773;28;20219;-77
2024/03/29 08:22:53;;;;;;;6.68;6.18;;;7.50;99.90;;;;;;5001283;28;20208;-72
2024/03/29 08:25:20;;;;;;;6.97;6.38;;;7.50;99.90;;;;;;5000316;28;20307;-74
2024/03/29 08:27:47;;;;;;;6.70;6.20;;;7.50;99.90;;;;;;4995769;28;20292;-74
2024/03/29 08:30:14;;;;;;;7.50;6.97;;;7.50;99.90;;;;;;4998062;28;21008;-72
2024/03/29 08:32:41;;;;;;;6.80;6.25;;;7.50;99.90;;;;;;5014290;28;20221;-73
2024/03/29 08:35:08;;;;;;;7.97;7.38;;;7.50;99.90;;;;;;5019491;28;20769;-71
2024/03/29 08:37:35;;;;;;;8.82;8.05;;;7.50;99.90;;;;;;5022293;28;20321;-74
2024/03/29 08:40:04;;;;;;;7.95;7.32;;;7.50;99.90;;;;;;5019527;28;20251;-72
2024/03/29 08:42:33;;;;;;;8.85;8.15;;;7.50;99.90;;;;;;5017723;28;20223;-72
2024/03/29 08:45:02;;;;;;;8.77;8.07;;;7.60;99.90;;;;;;5018589;28;20292;-73
2024/03/29 08:47:29;;;;;;;8.80;7.97;;;7.60;99.90;;;;;;5019991;28;20219;-75
2024/03/29 08:49:56;;;;;;;9.55;8.77;;;7.70;99.90;;;;;;5021649;28;20311;-72
2024/03/29 08:52:23;;;;;;;9.07;8.38;;;7.70;99.90;;;;;;5020394;28;20250;-71
2024/03/29 08:54:50;;;;;;;8.57;7.88;;;7.60;99.90;;;;;;5020005;28;20229;-74
2024/03/29 08:57:18;;;;;;;8.93;8.20;;;7.60;99.90;;;;;;5018402;28;20764;-71
2024/03/29 08:59:45;;;;;;;8.77;7.97;;;7.60;99.90;;;;;;5020230;28;20259;-73
2024/03/29 09:02:12;;;;;;;8.25;7.65;;;7.60;99.90;;;;;;5023769;28;20227;-71
2024/03/29 09:04:39;;;;;;;7.78;7.18;;;7.70;99.90;;;;;;5023459;28;21007;-71
2024/03/29 09:07:06;;;;;;;8.40;7.60;;;7.70;99.90;;;;;;5020274;28;20278;-74
2024/03/29 09:09:33;;;;;;;9.13;8.32;;;7.70;99.90;;;;;;5020260;28;20235;-75
2024/03/29 09:12:00;;;;;;;8.20;7.57;;;7.70;99.90;;;;;;5019577;28;20899;-73
2024/03/29 09:14:29;;;;;;;9.57;8.77;;;7.80;99.90;;;;;;5021288;28;20243;-71
2024/03/29 09:16:56;;;;;;;7.65;7.05;;;7.80;99.90;;;;;;5020793;28;20231;-71
2024/03/29 09:19:24;;;;;;;8.77;8.07;;;7.80;99.90;;;;;;5019179;28;20246;-72
2024/03/29 09:21:51;;;;;;;8.27;7.57;;;7.80;99.90;;;;;;5017644;28;20220;-71
2024/03/29 09:24:19;;;;;;;9.20;8.40;;;7.80;99.90;;;;;;5022368;28;20301;-72
2024/03/29 09:26:45;;;;;;;8.70;7.90;;;7.90;99.90;;;;;;5016060;28;20232;-73
2024/03/29 09:29:13;;;;;;;10.45;9.40;;;7.90;99.90;;;;;;5017767;28;20254;-72
2024/03/29 09:31:42;;;;;;;9.68;8.88;;;7.90;99.90;;;;;;5016215;28;20223;-72
2024/03/29 09:34:09;;;;;;;9.80;9.02;;;7.90;99.90;;;;;;5018203;28;20265;-73
2024/03/29 09:36:36;;;;;;;9.10;8.38;;;7.90;99.90;;;;;;5017010;28;20797;-73
2024/03/29 09:39:04;;;;;;;14.32;9.57;;;7.90;99.90;;;;;;5017701;28;20277;-71
2024/03/29 09:41:34;;;;;;;10.48;9.57;;;7.90;99.90;;;;;;5015843;28;20643;-73
2024/03/29 09:44:04;;;;;;;8.52;7.82;;;8.00;99.90;;;;;;5017697;28;20226;-72
2024/03/29 09:46:33;;;;;;;7.80;7.20;;;8.00;99.90;;;;;;5018188;28;20231;-74
2024/03/29 09:49:04;;;;;;;7.53;6.93;;;8.00;99.90;;;;;;5017656;28;20708;-74
2024/03/29 09:51:32;;;;;;;7.38;6.78;;;8.00;99.90;;;;;;5019770;28;20303;-72
2024/03/29 09:54:00;;;;;;;7.75;7.10;;;8.10;99.90;;;;;;5020123;28;20243;-75
2024/03/29 09:56:28;;;;;;;8.13;7.47;;;8.10;99.90;;;;;;5021244;28;20312;-72
2024/03/29 09:58:55;;;;;;;8.52;7.82;;;8.10;99.90;;;;;;5020761;28;20887;-71
2024/03/29 10:01:23;;;;;;;8.70;7.90;;;8.10;99.90;;;;;;5018462;28;20223;-72
2024/03/29 10:03:51;;;;;;;8.25;7.55;;;8.20;99.90;;;;;;5019341;28;20718;-72
2024/03/29 10:06:20;;;;;;;7.28;6.57;;;8.10;99.90;;;;;;5018212;28;20311;-71
2024/03/29 10:08:48;;;;;;;8.48;7.35;;;8.10;99.90;;;;;;5019422;28;20230;-72
2024/03/29 10:11:18;;;;;;;7.57;6.97;;;8.00;99.90;;;;;;5015868;28;20224;-72
2024/03/29 10:13:45;;;;;;;12.90;8.00;;;8.00;99.90;;;;;;5021437;28;20227;-76
2024/03/29 10:16:12;;;;;;;8.23;7.63;;;8.00;99.90;;;;;;5018273;28;21065;-72
2024/03/29 10:18:43;;;;;;;8.80;8.10;;;8.00;99.90;;;;;;5019055;28;20227;-73
2024/03/29 10:21:11;;;;;;;9.88;9.05;;;8.00;99.90;;;;;;5018302;28;20224;-73
2024/03/29 10:23:40;;;;;;;8.43;7.72;;;7.90;99.90;;;;;;5015466;28;20318;-74
2024/03/29 10:26:07;;;;;;;8.25;7.55;;;7.70;99.90;;;;;;5018204;28;20225;-71
2024/03/29 10:28:35;;;;;;;8.57;7.88;;;7.70;99.90;;;;;;5016809;28;20262;-72
2024/03/29 10:31:03;;;;;;;8.60;7.90;;;7.60;99.90;;;;;;5018353;28;20227;-73
2024/03/29 10:33:31;;;;;;;7.60;7.00;;;7.50;99.90;;;;;;5015432;28;20223;-73
2024/03/29 10:35:58;;;;;;;7.68;7.00;;;7.50;99.90;;;;;;5018477;28;20227;-72
2024/03/29 10:38:26;;;;;;;7.30;6.70;;;7.50;99.90;;;;;;5019451;28;20215;-73
2024/03/29 10:40:55;;;;;;;6.97;6.47;;;7.50;99.90;;;;;;5019194;28;20739;-72
2024/03/29 10:43:23;;;;;;;7.32;6.75;;;7.60;99.90;;;;;;5018937;28;20229;-72
2024/03/29 10:45:52;;;;;;;6.43;5.93;;;7.60;99.90;;;;;;5014398;28;20227;-71
2024/03/29 10:48:22;;;;;;;6.13;5.68;;;7.60;99.90;;;;;;5018820;28;20226;-73
2024/03/29 10:50:52;;;;;;;6.57;6.07;;;7.60;99.90;;;;;;5018063;28;20227;-72
2024/03/29 10:53:19;;;;;;;5.60;5.20;;;7.70;99.90;;;;;;5019404;28;20299;-71
2024/03/29 10:55:46;;;;;;;6.00;5.50;;;7.70;99.90;;;;;;5015742;28;20255;-74
2024/03/29 10:58:17;;;;;;;5.47;5.07;;;8.00;99.90;;;;;;5020881;28;20321;-74
2024/03/29 11:00:48;;;;;;;5.95;5.45;;;8.70;99.90;;;;;;5018427;28;20311;-76
2024/03/29 11:03:21;;;;;;;6.45;5.95;;;9.40;99.90;;;;;;5021012;28;20219;-75
2024/03/29 11:05:49;;;;;;;5.57;5.18;;;9.90;99.90;;;;;;5015203;28;20228;-73
2024/03/29 11:08:22;;;;;;;5.18;4.78;;;10.10;99.90;;;;;;5016699;28;20254;-71
2024/03/29 11:10:51;;;;;;;5.38;4.97;;;9.80;99.90;;;;;;5017765;28;20239;-71
2024/03/29 11:13:29;;;;;;;5.40;5.00;;;9.40;99.90;;;;;;5020975;28;20223;-73
2024/03/29 11:15:57;;;;;;;5.20;4.88;;;9.10;99.90;;;;;;5017218;28;20796;-73
2024/03/29 11:18:24;;;;;;;5.53;5.13;;;8.80;99.90;;;;;;5017588;28;20325;-71
2024/03/29 11:20:52;;;;;;;6.05;5.55;;;8.70;99.90;;;;;;5014639;28;20263;-74
2024/03/29 11:23:21;;;;;;;5.85;5.45;;;8.60;99.90;;;;;;5019368;28;20228;-72
2024/03/29 11:25:51;;;;;;;5.45;5.07;;;8.50;99.90;;;;;;5023094;28;20220;-71
2024/03/29 11:28:29;;;;;;;4.47;4.18;;;8.50;99.90;;;;;;5018372;28;20219;-71
2024/03/29 11:31:01;;;;;;;5.18;4.88;;;8.40;99.90;;;;;;5020171;28;20231;-73
2024/03/29 11:33:30;;;;;;;4.57;4.28;;;8.40;99.90;;;;;;5014840;28;20227;-72
2024/03/29 11:35:57;;;;;;;4.70;4.40;;;8.30;99.90;;;;;;5015915;28;20230;-73
2024/03/29 11:38:31;;;;;;;4.32;3.95;;;8.20;99.90;;;;;;5023031;28;20243;-72
2024/03/29 11:41:05;;;;;;;4.65;4.35;;;8.10;99.90;;;;;;5020331;28;20337;-73
2024/03/29 11:43:34;;;;;;;4.10;3.80;;;8.10;99.90;;;;;;5025965;28;20809;-73
2024/03/29 11:46:03;;;;;;;4.45;4.15;;;8.00;99.90;;;;;;5016743;28;20911;-73
2024/03/29 11:48:32;;;;;;;4.40;4.10;;;8.00;99.90;;;;;;5024174;28;20586;-73
2024/03/29 11:50:59;;;;;;;3.92;3.72;;;7.90;99.90;;;;;;5020365;28;20227;-72
2024/03/29 11:53:27;;;;;;;3.63;3.42;;;7.90;99.90;;;;;;5021489;28;20764;-72
2024/03/29 11:55:54;;;;;;;4.18;3.88;;;7.90;99.90;;;;;;5020074;28;20750;-74
2024/03/29 11:58:22;;;;;;;4.38;4.07;;;8.00;99.90;;;;;;5017540;28;20234;-72
2024/03/29 12:00:51;;;;;;;4.35;4.05;;;8.00;99.90;;;;;;5019877;28;20227;-72
2024/03/29 12:03:19;;;;;;;4.40;4.10;;;8.00;99.90;;;;;;5021724;28;20248;-71
2024/03/29 12:05:47;;;;;;;4.10;3.80;;;8.00;99.90;;;;;;5023141;28;20207;-71
2024/03/29 12:08:14;;;;;;;4.97;4.57;;;8.00;99.90;;;;;;5021495;28;20263;-73
2024/03/29 12:10:42;;;;;;;4.75;4.45;;;7.90;99.90;;;;;;5022119;28;20885;-72
2024/03/29 12:13:09;;;;;;;4.50;4.20;;;7.90;99.90;;;;;;5020657;28;20234;-74
2024/03/29 12:15:36;;;;;;;4.10;3.80;;;7.90;99.90;;;;;;5020038;28;20242;-74
2024/03/29 12:18:06;;;;;;;4.78;4.47;;;8.00;99.90;;;;;;5023501;28;20322;-72
2024/03/29 12:20:34;;;;;;;4.82;4.47;;;8.10;99.90;;;;;;5019393;28;20266;-76
2024/03/29 12:23:01;;;;;;;4.55;4.25;;;8.10;99.90;;;;;;5025025;28;20745;-74
2024/03/29 12:25:29;;;;;;;4.35;4.05;;;8.20;99.90;;;;;;5020741;28;20226;-74
2024/03/29 12:27:56;;;;;;;5.30;4.90;;;8.20;99.90;;;;;;5021516;28;20227;-74
2024/03/29 12:30:23;;;;;;;6.05;5.65;;;8.30;99.90;;;;;;5019509;28;20662;-71
2024/03/29 12:33:00;;;;;;;6.75;6.25;;;8.40;99.90;;;;;;5021049;28;20243;-76
2024/03/29 12:35:29;;;;;;;58.20;7.32;;;8.50;99.90;;;;;;5018383;28;20235;-73
2024/03/29 12:37:56;;;;;;;107.82;10.15;;;8.40;99.90;;;;;;5021933;28;20227;-71
2024/03/29 12:40:25;;;;;;;6.20;5.70;;;8.30;99.90;;;;;;5019123;28;20234;-74
2024/03/29 12:42:53;;;;;;;5.93;5.43;;;8.20;99.90;;;;;;5019827;28;20301;-70
2024/03/29 12:45:20;;;;;;;6.40;5.93;;;8.20;99.90;;;;;;5021758;28;20231;-73
2024/03/29 12:47:49;;;;;;;5.85;5.38;;;8.10;99.90;;;;;;5019443;28;20727;-71
2024/03/29 12:50:25;;;;;;;5.50;5.10;;;8.10;99.90;;;;;;5023258;28;20699;-74
2024/03/29 12:52:55;;;;;;;6.28;5.78;;;8.10;99.90;;;;;;5017285;28;20903;-72
2024/03/29 12:55:23;;;;;;;5.38;5.03;;;8.20;99.90;;;;;;5020402;28;20318;-73
2024/03/29 12:57:49;;;;;;;5.03;4.72;;;8.30;99.90;;;;;;5020625;28;20235;-73
2024/03/29 13:00:16;;;;;;;5.63;5.22;;;8.40;99.90;;;;;;5020967;28;20220;-73
2024/03/29 13:02:43;;;;;;;5.38;5.00;;;8.50;99.90;;;;;;5019650;28;20251;-72
2024/03/29 13:05:10;;;;;;;4.63;4.32;;;8.50;99.90;;;;;;5017358;28;20292;-72
2024/03/29 13:07:37;;;;;;;4.47;4.18;;;8.60;99.90;;;;;;5016715;28;20227;-71
2024/03/29 13:10:12;;;;;;;4.07;3.78;;;8.70;99.90;;;;;;5019627;28;20253;-72
2024/03/29 13:12:42;;;;;;;4.65;4.28;;;8.70;99.90;;;;;;5020924;28;20238;-75
2024/03/29 13:15:18;;;;;;;5.30;4.90;;;8.80;99.90;;;;;;5019897;28;20232;-71
2024/03/29 13:17:45;;;;;;;5.85;5.35;;;8.90;99.90;;;;;;5015100;28;20219;-71
2024/03/29 13:20:13;;;;;;;5.53;5.05;;;8.80;99.90;;;;;;5019414;28;20224;-74
2024/03/29 13:22:42;;;;;;;5.57;5.18;;;8.90;99.90;;;;;;5015427;28;20220;-72
2024/03/29 13:25:11;;;;;;;5.20;4.90;;;8.90;99.90;;;;;;5021590;28;20306;-72
2024/03/29 13:27:38;;;;;;;4.75;4.45;;;9.00;99.90;;;;;;5017587;28;20233;-72
2024/03/29 13:30:06;;;;;;;4.68;4.38;;;9.00;99.90;;;;;;5015591;28;20800;-73
2024/03/29 13:32:33;;;;;;;4.15;3.85;;;9.00;99.90;;;;;;5018754;28;20240;-74
2024/03/29 13:35:01;;;;;;;4.50;4.20;;;9.10;99.90;;;;;;5017362;28;20609;-73
2024/03/29 13:37:28;;;;;;;3.78;3.58;;;9.20;99.90;;;;;;5018683;28;20227;-71
2024/03/29 13:39:56;;;;;;;4.30;4.00;;;9.20;99.90;;;;;;5019131;28;20666;-71
2024/03/29 13:42:24;;;;;;;4.50;4.20;;;9.10;99.90;;;;;;5020696;28;20230;-73
2024/03/29 13:44:51;;;;;;;4.03;3.72;;;9.00;99.90;;;;;;5019022;28;20208;-74
2024/03/29 13:47:18;;;;;;;4.63;4.32;;;8.90;99.90;;;;;;5017347;28;20242;-73
2024/03/29 13:49:46;;;;;;;4.18;3.88;;;8.90;99.90;;;;;;5018892;28;21018;-74
2024/03/29 13:52:13;;;;;;;4.35;4.05;;;8.90;99.90;;;;;;5018921;28;20231;-73
2024/03/29 13:54:44;;;;;;;4.30;4.00;;;8.80;99.90;;;;;;5017991;28;20303;-74
2024/03/29 13:57:12;;;;;;;4.40;4.10;;;8.80;99.90;;;;;;5018554;28;20807;-74
2024/03/29 13:59:42;;;;;;;3.70;3.50;;;8.80;99.90;;;;;;5015296;28;20274;-74
2024/03/29 14:02:09;;;;;;;3.72;3.42;;;8.80;99.90;;;;;;5017396;28;20844;-73
2024/03/29 14:04:36;;;;;;;3.70;3.50;;;8.80;99.90;;;;;;5020896;28;20764;-71
2024/03/29 14:07:06;;;;;;;4.50;4.15;;;8.80;99.90;;;;;;5021285;28;20220;-71
2024/03/29 14:09:35;;;;;;;6.57;5.40;;;8.80;99.90;;;;;;5018585;28;20243;-72
2024/03/29 14:12:03;;;;;;;5.25;4.22;;;8.90;99.90;;;;;;5017335;28;20306;-73
2024/03/29 14:14:30;;;;;;;5.63;4.13;;;8.90;99.90;;;;;;5009464;28;20219;-72
2024/03/29 14:17:03;;;;;;;5.75;4.97;;;9.00;99.90;;;;;;5015922;28;20247;-71
2024/03/29 14:19:29;;;;;;;6.70;5.75;;;9.00;99.90;;;;;;5017822;28;20231;-73
2024/03/29 14:21:56;;;;;;;7.05;6.05;;;9.00;99.90;;;;;;5014050;28;20255;-75
2024/03/29 14:24:24;;;;;;;6.22;5.63;;;9.10;99.90;;;;;;5018041;28;20249;-72
2024/03/29 14:26:51;;;;;;;5.43;4.90;;;9.10;99.90;;;;;;5020694;28;20215;-71
2024/03/29 14:29:21;;;;;;;5.40;4.97;;;9.10;99.90;;;;;;5014117;28;20259;-73
2024/03/29 14:31:48;;;;;;;5.95;5.45;;;9.10;99.90;;;;;;5009455;28;20225;-70
2024/03/29 14:34:16;;;;;;;5.10;4.70;;;9.10;99.90;;;;;;5006548;28;20219;-73
2024/03/29 14:36:43;;;;;;;5.50;5.10;;;9.10;99.90;;;;;;5010676;28;20306;-73
2024/03/29 14:39:12;;;;;;;5.10;4.70;;;9.10;99.90;;;;;;5009414;28;20356;-73
2024/03/29 14:41:40;;;;;;;5.30;4.90;;;9.10;99.90;;;;;;5009925;28;21833;-72
2024/03/29 14:44:07;;;;;;;4.20;3.90;;;9.10;99.90;;;;;;5007364;28;20742;-76
2024/03/29 14:46:34;;;;;;;4.22;3.97;;;9.10;99.90;;;;;;5003452;28;21563;-73
2024/03/29 14:49:04;;;;;;;4.45;4.05;;;9.10;99.90;;;;;;5011059;28;20237;-74